createdAt,value
2022-12-12T00:00:53.206Z,98034.50
2022-12-12T00:01:57.145Z,98024.06
2022-12-12T00:03:01.144Z,98031.00
2022-12-12T00:04:06.034Z,98034.38
2022-12-12T00:05:15.645Z,98033.19
2022-12-12T00:06:20.419Z,98030.72
2022-12-12T00:07:24.130Z,98033.13
2022-12-12T00:08:27.994Z,98026.34
2022-12-12T00:09:31.622Z,98031.56
2022-12-12T00:10:36.534Z,98023.53
2022-12-12T00:11:41.202Z,98027.13
2022-12-12T00:12:44.786Z,98031.44
2022-12-12T00:13:49.357Z,98026.91
2022-12-12T00:14:52.994Z,98025.09
2022-12-12T00:15:56.657Z,98024.09
2022-12-12T00:17:00.644Z,98026.91
2022-12-12T00:18:04.581Z,98024.31
2022-12-12T00:19:08.230Z,98021.06
2022-12-12T00:20:12.035Z,98019.09
2022-12-12T00:21:23.487Z,98018.19
2022-12-12T00:22:27.231Z,98021.66
2022-12-12T00:23:31.246Z,98018.88
2022-12-12T00:24:35.076Z,98019.81
2022-12-12T00:25:38.657Z,98029.16
2022-12-12T00:26:42.463Z,98025.00
2022-12-12T00:27:47.199Z,98020.69
2022-12-12T00:28:51.343Z,98031.78
2022-12-12T00:29:56.007Z,98025.00
2022-12-12T00:31:00.007Z,98026.34
2022-12-12T00:32:04.112Z,98029.81
2022-12-12T00:33:07.825Z,98025.78
2022-12-12T00:34:11.523Z,98023.53
2022-12-12T00:35:15.490Z,98021.88
2022-12-12T00:36:24.827Z,98015.72
2022-12-12T00:37:28.513Z,98014.47
2022-12-12T00:38:32.078Z,98022.00
2022-12-12T00:39:36.009Z,98027.34
2022-12-12T00:40:39.702Z,98034.22
2022-12-12T00:41:43.962Z,98027.13
2022-12-12T00:42:47.423Z,98022.75
2022-12-12T00:43:51.593Z,98022.69
2022-12-12T00:44:55.160Z,98026.28
2022-12-12T00:46:00.776Z,98014.63
2022-12-12T00:47:04.444Z,98023.19
2022-12-12T00:48:08.371Z,98023.97
2022-12-12T00:49:13.418Z,98019.66
2022-12-12T00:50:17.362Z,98020.56
2022-12-12T00:51:24.297Z,98013.44
2022-12-12T00:52:28.399Z,98019.00
2022-12-12T00:53:32.211Z,98017.16
2022-12-12T00:54:36.113Z,98018.75
2022-12-12T00:55:40.285Z,98019.94
2022-12-12T00:56:43.928Z,98014.63
2022-12-12T00:57:47.671Z,98018.16
2022-12-12T00:58:52.640Z,98018.56
2022-12-12T00:59:56.222Z,98015.13
2022-12-12T01:01:06.694Z,98020.25
2022-12-12T01:02:10.809Z,98019.28
2022-12-12T01:03:14.604Z,98010.41
2022-12-12T01:04:18.327Z,98010.50
2022-12-12T01:05:22.360Z,98013.88
2022-12-12T01:06:27.901Z,98009.75
2022-12-12T01:07:32.123Z,98013.97
2022-12-12T01:08:36.001Z,98001.16
2022-12-12T01:09:39.679Z,98010.34
2022-12-12T01:10:43.379Z,98007.59
2022-12-12T01:11:47.458Z,97999.72
2022-12-12T01:12:51.317Z,98001.69
2022-12-12T01:13:56.340Z,98006.13
2022-12-12T01:15:00.098Z,98005.47
2022-12-12T01:16:06.088Z,98011.69
2022-12-12T01:17:09.834Z,98014.22
2022-12-12T01:18:14.461Z,98006.88
2022-12-12T01:19:18.484Z,98006.75
2022-12-12T01:20:27.887Z,98006.81
2022-12-12T01:21:32.439Z,98011.03
2022-12-12T01:22:37.439Z,98001.53
2022-12-12T01:23:42.317Z,98008.44
2022-12-12T01:24:46.004Z,98006.63
2022-12-12T01:25:49.974Z,98009.50
2022-12-12T01:26:53.677Z,98000.91
2022-12-12T01:27:57.238Z,97997.03
2022-12-12T01:29:01.100Z,97999.84
2022-12-12T01:30:06.784Z,97999.84
2022-12-12T01:31:11.317Z,97997.66
2022-12-12T01:32:15.097Z,97994.19
2022-12-12T01:33:19.963Z,97993.00
2022-12-12T01:34:24.007Z,97995.53
2022-12-12T01:35:28.379Z,97993.09
2022-12-12T01:36:32.173Z,97987.88
2022-12-12T01:37:37.999Z,97999.25
2022-12-12T01:38:41.589Z,97995.81
2022-12-12T01:39:45.515Z,97990.66
2022-12-12T01:40:49.000Z,97996.88
2022-12-12T01:41:52.627Z,97993.34
2022-12-12T01:42:56.670Z,97998.69
2022-12-12T01:44:27.486Z,97994.19
2022-12-12T01:45:58.903Z,97992.44
2022-12-12T01:47:02.543Z,97997.16
2022-12-12T01:48:06.337Z,97987.41
2022-12-12T01:49:21.345Z,97988.41
2022-12-12T01:50:24.958Z,97986.66
2022-12-12T01:51:30.425Z,97991.50
2022-12-12T01:52:46.822Z,97985.31
2022-12-12T01:53:58.405Z,97989.91
2022-12-12T01:55:06.576Z,97989.25
2022-12-12T01:56:17.388Z,97986.72
2022-12-12T01:57:33.539Z,97993.63
2022-12-12T01:58:37.306Z,97989.41
2022-12-12T01:59:42.468Z,97995.97
2022-12-12T02:00:46.671Z,97985.47
2022-12-12T02:01:52.427Z,97989.94
2022-12-12T02:02:57.229Z,97994.63
2022-12-12T02:04:03.072Z,97989.44
2022-12-12T02:05:26.916Z,97994.53
2022-12-12T02:06:31.285Z,97991.94
2022-12-12T02:07:35.408Z,97984.81
2022-12-12T02:08:41.210Z,97987.88
2022-12-12T02:09:46.566Z,97989.09
2022-12-12T02:10:51.552Z,97986.44
2022-12-12T02:11:58.126Z,97993.47
2022-12-12T02:13:12.148Z,97994.63
2022-12-12T02:14:38.665Z,97993.13
2022-12-12T02:16:21.078Z,97993.19
2022-12-12T02:17:39.461Z,97989.94
2022-12-12T02:19:23.080Z,97992.31
2022-12-12T02:21:16.132Z,97987.09
2022-12-12T02:22:43.754Z,97996.91
2022-12-12T02:24:41.624Z,97993.44
2022-12-12T02:26:03.840Z,97995.06
2022-12-12T02:27:18.832Z,97992.47
2022-12-12T02:28:31.433Z,97986.59
2022-12-12T02:30:10.772Z,97987.41
2022-12-12T02:31:34.928Z,97989.84
2022-12-12T02:33:23.870Z,97993.97
2022-12-12T02:34:50.810Z,97991.75
2022-12-12T02:36:02.330Z,97987.31
2022-12-12T02:37:29.760Z,97990.50
2022-12-12T02:38:49.072Z,97993.19
2022-12-12T02:40:24.648Z,97992.38
2022-12-12T02:41:58.328Z,97990.19
2022-12-12T02:43:34.031Z,97989.16
2022-12-12T02:44:51.044Z,97985.81
2022-12-12T02:46:10.082Z,97988.50
2022-12-12T02:47:23.443Z,97993.31
2022-12-12T02:48:40.435Z,97992.28
2022-12-12T02:49:58.794Z,97987.25
2022-12-12T02:51:08.275Z,97986.47
2022-12-12T02:52:12.649Z,97985.41
2022-12-12T02:53:24.728Z,97981.13
2022-12-12T02:54:28.865Z,97981.84
2022-12-12T02:55:36.437Z,97984.44
2022-12-12T02:56:51.025Z,97982.75
2022-12-12T02:57:55.523Z,97978.44
2022-12-12T02:58:59.358Z,97985.16
2022-12-12T03:00:09.960Z,97981.78
2022-12-12T03:01:58.606Z,97985.41
2022-12-12T03:04:14.766Z,97991.63
2022-12-12T03:05:52.138Z,97990.69
2022-12-12T03:07:33.181Z,97981.19
2022-12-12T03:09:10.149Z,97984.13
2022-12-12T03:10:57.704Z,97979.63
2022-12-12T03:12:52.446Z,97984.22
2022-12-12T03:14:25.038Z,97978.19
2022-12-12T03:15:54.742Z,97984.28
2022-12-12T03:17:15.881Z,97985.25
2022-12-12T03:18:38.529Z,97987.16
2022-12-12T03:19:55.194Z,97987.91
2022-12-12T03:21:16.109Z,97985.06
2022-12-12T03:22:46.243Z,97982.84
2022-12-12T03:24:00.216Z,97977.41
2022-12-12T03:25:19.066Z,97978.16
2022-12-12T03:26:44.204Z,97985.25
2022-12-12T03:28:13.756Z,97974.63
2022-12-12T03:29:46.885Z,97970.38
2022-12-12T03:30:57.908Z,97979.06
2022-12-12T03:32:13.075Z,97982.63
2022-12-12T03:33:48.122Z,97972.88
2022-12-12T03:35:03.541Z,97970.44
2022-12-12T03:36:20.509Z,97973.19
2022-12-12T03:37:34.258Z,97975.81
2022-12-12T03:38:47.407Z,97973.19
2022-12-12T03:39:59.620Z,97972.56
2022-12-12T03:41:09.363Z,97982.06
2022-12-12T03:42:27.093Z,97976.50
2022-12-12T03:43:37.923Z,97979.00
2022-12-12T03:45:13.557Z,97984.41
2022-12-12T03:46:41.212Z,97978.28
2022-12-12T03:48:01.115Z,97983.38
2022-12-12T03:49:17.809Z,97976.38
2022-12-12T03:50:27.430Z,97984.41
2022-12-12T03:51:36.941Z,97977.31
2022-12-12T03:53:11.327Z,97974.47
2022-12-12T03:54:36.922Z,97966.81
2022-12-12T03:55:53.262Z,97981.03
2022-12-12T03:57:07.715Z,97972.47
2022-12-12T03:58:28.011Z,97975.81
2022-12-12T03:59:55.604Z,97981.28
2022-12-12T04:01:04.821Z,97987.19
2022-12-12T04:02:31.373Z,97984.41
2022-12-12T04:04:07.777Z,97982.91
2022-12-12T04:05:36.033Z,97993.28
2022-12-12T04:06:55.541Z,97986.69
2022-12-12T04:08:15.727Z,97984.22
2022-12-12T04:09:39.989Z,97980.00
2022-12-12T04:11:12.110Z,97983.13
2022-12-12T04:12:40.377Z,97977.94
2022-12-12T04:14:06.185Z,97981.88
2022-12-12T04:15:58.451Z,97987.41
2022-12-12T04:17:06.859Z,97982.31
2022-12-12T04:18:19.181Z,97982.13
2022-12-12T04:20:10.365Z,97974.13
2022-12-12T04:21:56.807Z,97971.56
2022-12-12T04:23:30.879Z,97972.03
2022-12-12T04:25:06.121Z,97981.59
2022-12-12T04:26:42.433Z,97974.81
2022-12-12T04:27:54.719Z,97978.91
2022-12-12T04:29:28.642Z,97982.44
2022-12-12T04:30:35.812Z,97975.47
2022-12-12T04:31:57.222Z,97978.34
2022-12-12T04:33:14.659Z,97981.88
2022-12-12T04:34:31.927Z,97983.47
2022-12-12T04:35:41.465Z,97977.16
2022-12-12T04:36:48.184Z,97990.53
2022-12-12T04:38:27.502Z,97987.66
2022-12-12T04:39:37.177Z,97986.47
2022-12-12T04:40:50.614Z,97984.84
2022-12-12T04:41:56.391Z,97990.34
2022-12-12T04:43:17.619Z,97992.22
2022-12-12T04:44:24.586Z,97986.31
2022-12-12T04:45:41.030Z,97985.97
2022-12-12T04:46:51.400Z,97992.78
2022-12-12T04:47:58.753Z,97990.19
2022-12-12T04:49:22.358Z,97985.91
2022-12-12T04:50:31.806Z,97988.09
2022-12-12T04:51:46.795Z,97988.16
2022-12-12T04:52:53.859Z,97988.25
2022-12-12T04:54:10.997Z,97988.81
2022-12-12T04:55:36.988Z,97985.22
2022-12-12T04:56:53.026Z,97993.03
2022-12-12T04:57:57.286Z,97988.81
2022-12-12T04:59:02.940Z,97988.94
2022-12-12T05:00:12.681Z,97986.47
2022-12-12T05:01:52.856Z,97992.97
2022-12-12T05:03:20.605Z,97990.44
2022-12-12T05:04:51.421Z,97995.47
2022-12-12T05:06:08.041Z,97994.38
2022-12-12T05:07:23.253Z,97992.47
2022-12-12T05:08:39.940Z,97999.25
2022-12-12T05:09:44.453Z,97996.41
2022-12-12T05:10:54.901Z,98000.94
2022-12-12T05:11:58.859Z,98003.66
2022-12-12T05:13:03.143Z,97994.91
2022-12-12T05:14:10.186Z,98001.13
2022-12-12T05:15:16.801Z,97993.44
2022-12-12T05:16:48.256Z,97999.25
2022-12-12T05:18:08.373Z,97988.88
2022-12-12T05:19:11.964Z,97997.41
2022-12-12T05:20:17.089Z,97992.19
2022-12-12T05:21:20.986Z,97994.72
2022-12-12T05:22:25.187Z,97995.47
2022-12-12T05:23:34.465Z,97993.75
2022-12-12T05:24:38.565Z,97997.41
2022-12-12T05:25:42.420Z,98001.44
2022-12-12T05:26:46.193Z,97990.94
2022-12-12T05:27:50.171Z,97995.31
2022-12-12T05:28:55.313Z,97996.03
2022-12-12T05:29:59.184Z,97995.72
2022-12-12T05:31:03.325Z,97989.81
2022-12-12T05:32:07.240Z,97996.34
2022-12-12T05:33:11.266Z,97992.06
2022-12-12T05:34:15.021Z,97990.25
2022-12-12T05:35:19.389Z,97995.56
2022-12-12T05:36:23.246Z,97997.34
2022-12-12T05:37:27.248Z,97989.72
2022-12-12T05:38:31.120Z,97991.22
2022-12-12T05:39:34.996Z,97997.00
2022-12-12T05:40:38.948Z,97987.56
2022-12-12T05:41:42.782Z,97992.63
2022-12-12T05:42:46.646Z,97991.66
2022-12-12T05:43:50.707Z,97995.03
2022-12-12T05:44:55.080Z,98003.28
2022-12-12T05:45:59.276Z,97989.66
2022-12-12T05:47:03.137Z,97995.47
2022-12-12T05:48:07.130Z,97994.63
2022-12-12T05:49:10.819Z,97994.63
2022-12-12T05:50:15.108Z,97998.91
2022-12-12T05:51:19.558Z,97996.41
2022-12-12T05:52:23.304Z,98003.06
2022-12-12T05:53:26.880Z,98003.91
2022-12-12T05:54:30.902Z,97998.41
2022-12-12T05:55:35.654Z,98002.22
2022-12-12T05:56:39.493Z,98008.16
2022-12-12T05:57:43.272Z,98009.91
2022-12-12T05:58:46.804Z,98006.50
2022-12-12T05:59:51.200Z,98006.16
2022-12-12T06:00:58.587Z,98005.13
2022-12-12T06:02:07.029Z,98007.59
2022-12-12T06:03:10.734Z,98006.47
2022-12-12T06:04:14.959Z,98009.22
2022-12-12T06:05:19.004Z,98003.09
2022-12-12T06:06:23.264Z,98011.75
2022-12-12T06:07:27.176Z,98013.53
2022-12-12T06:08:31.002Z,98012.41
2022-12-12T06:09:35.268Z,98016.41
2022-12-12T06:10:39.185Z,98011.34
2022-12-12T06:11:43.439Z,98019.00
2022-12-12T06:12:47.235Z,98023.53
2022-12-12T06:13:50.828Z,98019.09
2022-12-12T06:14:54.321Z,98019.09
2022-12-12T06:15:58.119Z,98027.53
2022-12-12T06:17:01.977Z,98033.81
2022-12-12T06:18:06.527Z,98027.88
2022-12-12T06:19:10.731Z,98029.63
2022-12-12T06:20:14.375Z,98031.13
2022-12-12T06:21:18.465Z,98026.19
2022-12-12T06:22:22.300Z,98028.66
2022-12-12T06:23:26.439Z,98022.94
2022-12-12T06:24:30.060Z,98033.38
2022-12-12T06:25:34.118Z,98028.28
2022-12-12T06:26:37.752Z,98023.78
2022-12-12T06:27:41.822Z,98026.97
2022-12-12T06:28:46.970Z,98022.81
2022-12-12T06:29:50.638Z,98031.28
2022-12-12T06:30:54.470Z,98032.13
2022-12-12T06:31:58.288Z,98036.25
2022-12-12T06:33:02.785Z,98033.66
2022-12-12T06:34:06.805Z,98037.09
2022-12-12T06:35:12.523Z,98032.97
2022-12-12T06:36:24.730Z,98036.56
2022-12-12T06:37:28.776Z,98035.06
2022-12-12T06:38:33.532Z,98030.97
2022-12-12T06:39:38.375Z,98032.31
2022-12-12T06:40:42.603Z,98037.94
2022-12-12T06:41:46.475Z,98035.00
2022-12-12T06:42:50.480Z,98043.00
2022-12-12T06:43:55.727Z,98038.50
2022-12-12T06:44:59.389Z,98042.88
2022-12-12T06:46:06.460Z,98044.56
2022-12-12T06:47:10.599Z,98048.72
2022-12-12T06:48:14.704Z,98048.47
2022-12-12T06:49:18.714Z,98044.03
2022-12-12T06:50:23.952Z,98044.81
2022-12-12T06:51:36.507Z,98047.00
2022-12-12T06:52:40.403Z,98047.94
2022-12-12T06:53:44.910Z,98045.25
2022-12-12T06:54:49.131Z,98057.50
2022-12-12T06:55:52.965Z,98046.34
2022-12-12T06:56:57.049Z,98047.19
2022-12-12T06:58:01.104Z,98048.69
2022-12-12T06:59:05.136Z,98043.47
2022-12-12T07:00:09.858Z,98046.31
2022-12-12T07:01:16.360Z,98047.19
2022-12-12T07:02:26.028Z,98053.34
2022-12-12T07:03:33.753Z,98053.47
2022-12-12T07:04:37.750Z,98049.25
2022-12-12T07:05:41.457Z,98041.72
2022-12-12T07:06:45.875Z,98051.13
2022-12-12T07:07:49.752Z,98039.78
2022-12-12T07:08:53.714Z,98046.84
2022-12-12T07:09:57.776Z,98048.72
2022-12-12T07:11:26.104Z,98050.44
2022-12-12T07:12:29.944Z,98047.03
2022-12-12T07:13:34.307Z,98052.91
2022-12-12T07:14:40.321Z,98049.59
2022-12-12T07:15:50.420Z,98054.84
2022-12-12T07:16:54.733Z,98059.44
2022-12-12T07:17:58.609Z,98062.94
2022-12-12T07:19:02.801Z,98055.69
2022-12-12T07:20:10.694Z,98053.16
2022-12-12T07:21:18.738Z,98060.06
2022-12-12T07:22:23.293Z,98061.84
2022-12-12T07:23:27.621Z,98057.72
2022-12-12T07:24:31.483Z,98057.03
2022-12-12T07:25:38.822Z,98056.94
2022-12-12T07:26:42.860Z,98053.50
2022-12-12T07:27:47.162Z,98056.88
2022-12-12T07:28:52.222Z,98053.16
2022-12-12T07:29:55.716Z,98058.13
2022-12-12T07:31:01.529Z,98054.09
2022-12-12T07:32:05.733Z,98053.44
2022-12-12T07:33:11.677Z,98058.06
2022-12-12T07:34:15.368Z,98062.38
2022-12-12T07:35:19.305Z,98064.25
2022-12-12T07:36:24.932Z,98058.28
2022-12-12T07:37:30.138Z,98061.81
2022-12-12T07:38:36.935Z,98056.44
2022-12-12T07:39:40.935Z,98052.59
2022-12-12T07:40:44.815Z,98059.31
2022-12-12T07:41:48.786Z,98053.91
2022-12-12T07:42:52.869Z,98062.81
2022-12-12T07:43:56.532Z,98060.28
2022-12-12T07:45:00.230Z,98061.00
2022-12-12T07:46:08.287Z,98070.38
2022-12-12T07:47:11.875Z,98051.06
2022-12-12T07:48:15.803Z,98061.38
2022-12-12T07:49:19.667Z,98070.75
2022-12-12T07:50:23.674Z,98059.81
2022-12-12T07:51:27.314Z,98059.69
2022-12-12T07:52:30.865Z,98062.41
2022-12-12T07:53:34.522Z,98058.13
2022-12-12T07:54:38.419Z,98065.09
2022-12-12T07:55:41.983Z,98060.56
2022-12-12T07:56:45.832Z,98056.22
2022-12-12T07:57:50.485Z,98059.81
2022-12-12T07:58:55.601Z,98059.63
2022-12-12T07:59:59.520Z,98061.13
2022-12-12T08:01:15.415Z,98060.03
2022-12-12T08:02:19.107Z,98056.78
2022-12-12T08:03:23.034Z,98065.25
2022-12-12T08:04:27.506Z,98060.97
2022-12-12T08:05:31.615Z,98057.72
2022-12-12T08:06:35.205Z,98067.22
2022-12-12T08:07:38.822Z,98064.59
2022-12-12T08:08:47.826Z,98066.25
2022-12-12T08:09:51.588Z,98061.72
2022-12-12T08:10:55.768Z,98066.94
2022-12-12T08:12:00.307Z,98061.88
2022-12-12T08:13:04.281Z,98065.41
2022-12-12T08:14:12.884Z,98061.13
2022-12-12T08:15:18.452Z,98068.78
2022-12-12T08:16:30.290Z,98061.53
2022-12-12T08:17:34.136Z,98071.31
2022-12-12T08:18:37.828Z,98075.44
2022-12-12T08:19:41.599Z,98065.06
2022-12-12T08:20:45.839Z,98064.22
2022-12-12T08:21:49.739Z,98066.84
2022-12-12T08:22:53.958Z,98067.03
2022-12-12T08:24:00.748Z,98071.31
2022-12-12T08:25:05.084Z,98073.16
2022-12-12T08:26:12.491Z,98067.69
2022-12-12T08:27:17.625Z,98070.41
2022-12-12T08:28:25.208Z,98071.47
2022-12-12T08:29:29.600Z,98075.78
2022-12-12T08:30:33.280Z,98076.41
2022-12-12T08:31:39.921Z,98076.28
2022-12-12T08:32:44.073Z,98077.78
2022-12-12T08:33:50.835Z,98075.16
2022-12-12T08:34:59.512Z,98069.09
2022-12-12T08:36:15.603Z,98073.31
2022-12-12T08:37:19.930Z,98069.19
2022-12-12T08:38:24.825Z,98071.47
2022-12-12T08:39:28.701Z,98078.81
2022-12-12T08:40:32.489Z,98079.72
2022-12-12T08:41:40.613Z,98075.56
2022-12-12T08:42:45.378Z,98067.75
2022-12-12T08:43:50.509Z,98069.44
2022-12-12T08:46:23.177Z,98080.16
2022-12-12T08:47:39.523Z,98075.84
2022-12-12T08:48:45.597Z,98076.81
2022-12-12T08:49:49.548Z,98084.00
2022-12-12T08:50:54.817Z,98084.00
2022-12-12T08:51:58.917Z,98083.09
2022-12-12T08:53:03.017Z,98083.19
2022-12-12T09:06:19.408Z,98076.28
2022-12-12T09:07:23.575Z,98077.94
2022-12-12T09:08:32.129Z,98073.34
2022-12-12T09:09:37.424Z,98080.34
2022-12-12T09:10:42.702Z,98077.88
2022-12-12T09:11:47.231Z,98079.47
2022-12-12T09:12:51.200Z,98075.88
2022-12-12T09:13:54.804Z,98080.06
2022-12-12T09:14:58.524Z,98083.00
2022-12-12T09:16:02.749Z,98084.00
2022-12-12T09:17:12.593Z,98084.84
2022-12-12T09:18:16.371Z,98087.38
2022-12-12T09:19:19.984Z,98083.44
2022-12-12T09:20:24.116Z,98080.16
2022-12-12T09:21:27.943Z,98082.81
2022-12-12T09:22:32.706Z,98081.69
2022-12-12T09:23:36.873Z,98088.81
2022-12-12T09:24:40.518Z,98090.41
2022-12-12T09:25:44.869Z,98090.50
2022-12-12T09:26:48.818Z,98083.41
2022-12-12T09:27:52.568Z,98095.72
2022-12-12T09:28:56.155Z,98085.94
2022-12-12T09:30:00.260Z,98091.09
2022-12-12T09:31:16.909Z,98086.50
2022-12-12T09:32:24.623Z,98082.34
2022-12-12T09:33:28.838Z,98087.56
2022-12-12T09:34:34.358Z,98086.28
2022-12-12T09:35:38.554Z,98079.47
2022-12-12T09:36:42.291Z,98088.06
2022-12-12T09:37:46.387Z,98080.38
2022-12-12T09:38:50.604Z,98081.81
2022-12-12T09:39:54.183Z,98083.22
2022-12-12T09:41:09.896Z,98085.03
2022-12-12T09:42:29.744Z,98092.00
2022-12-12T09:43:41.345Z,98084.75
2022-12-12T09:44:46.073Z,98085.31
2022-12-12T09:45:51.177Z,98073.97
2022-12-12T09:47:09.750Z,98086.88
2022-12-12T09:48:35.762Z,98082.28
2022-12-12T09:49:55.837Z,98079.59
2022-12-12T09:51:00.520Z,98081.09
2022-12-12T09:52:04.904Z,98077.66
2022-12-12T09:53:18.539Z,98085.41
2022-12-12T09:54:26.995Z,98074.88
2022-12-12T09:56:12.590Z,98078.06
2022-12-12T09:57:41.721Z,98078.22
2022-12-12T09:59:24.113Z,98076.53
2022-12-12T10:00:35.440Z,98087.59
2022-12-12T10:02:13.083Z,98073.91
2022-12-12T10:03:46.295Z,98086.53
2022-12-12T10:05:27.288Z,98078.84
2022-12-12T10:06:49.201Z,98083.50
2022-12-12T10:08:24.601Z,98081.69
2022-12-12T10:10:13.935Z,98084.63
2022-12-12T10:11:52.126Z,98079.63
2022-12-12T10:13:00.141Z,98071.81
2022-12-12T10:14:14.154Z,98081.41
2022-12-12T10:15:39.574Z,98081.69
2022-12-12T10:16:45.028Z,98074.69
2022-12-12T10:17:50.326Z,98090.34
2022-12-12T10:19:05.653Z,98081.69
2022-12-12T10:20:28.866Z,98076.31
2022-12-12T10:21:40.948Z,98088.38
2022-12-12T10:23:00.368Z,98086.53
2022-12-12T10:24:40.856Z,98083.50
2022-12-12T10:25:54.685Z,98086.88
2022-12-12T10:27:11.046Z,98078.16
2022-12-12T10:28:19.690Z,98079.34
2022-12-12T10:29:27.458Z,98076.66
2022-12-12T10:30:37.178Z,98079.97
2022-12-12T10:32:24.967Z,98083.50
2022-12-12T10:34:13.960Z,98073.06
2022-12-12T10:35:54.199Z,98087.03
2022-12-12T10:37:54.520Z,98083.66
2022-12-12T10:39:31.842Z,98080.69
2022-12-12T10:41:12.299Z,98074.63
2022-12-12T10:43:01.725Z,98084.25
2022-12-12T10:44:47.007Z,98083.66
2022-12-12T10:46:32.605Z,98078.44
2022-12-12T10:47:36.540Z,98073.22
2022-12-12T10:48:41.148Z,98068.00
2022-12-12T10:49:45.121Z,98072.97
2022-12-12T10:50:57.927Z,98079.88
2022-12-12T10:52:15.464Z,98077.06
2022-12-12T10:53:24.873Z,98069.69
2022-12-12T10:54:37.456Z,98068.84
2022-12-12T10:56:09.390Z,98068.47
2022-12-12T10:57:26.161Z,98072.78
2022-12-12T10:58:43.816Z,98074.19
2022-12-12T10:59:57.846Z,98072.34
2022-12-12T11:01:12.687Z,98071.50
2022-12-12T11:02:40.020Z,98079.25
2022-12-12T11:03:49.316Z,98080.69
2022-12-12T11:05:24.528Z,98076.75
2022-12-12T11:06:33.903Z,98076.59
2022-12-12T11:07:45.380Z,98073.22
2022-12-12T11:09:10.414Z,98082.00
2022-12-12T11:10:32.164Z,98077.63
2022-12-12T11:11:37.847Z,98073.50
2022-12-12T11:12:41.749Z,98078.72
2022-12-12T11:14:01.438Z,98064.59
2022-12-12T11:15:17.657Z,98064.47
2022-12-12T11:16:29.313Z,98069.81
2022-12-12T11:17:35.290Z,98075.88
2022-12-12T11:18:39.369Z,98073.13
2022-12-12T11:19:46.658Z,98073.78
2022-12-12T11:21:14.665Z,98067.84
2022-12-12T11:22:19.427Z,98065.88
2022-12-12T11:23:29.447Z,98065.88
2022-12-12T11:24:35.020Z,98069.53
2022-12-12T11:25:38.833Z,98072.28
2022-12-12T11:26:49.505Z,98072.66
2022-12-12T11:27:55.046Z,98071.66
2022-12-12T11:29:03.534Z,98068.69
2022-12-12T11:30:25.443Z,98074.06
2022-12-12T11:31:38.791Z,98071.16
2022-12-12T11:32:48.628Z,98071.22
2022-12-12T11:34:07.520Z,98066.72
2022-12-12T11:35:43.854Z,98065.16
2022-12-12T11:36:51.451Z,98066.91
2022-12-12T11:38:23.249Z,98063.53
2022-12-12T11:39:41.813Z,98073.34
2022-12-12T11:41:05.855Z,98068.41
2022-12-12T11:42:16.148Z,98067.63
2022-12-12T11:43:27.881Z,98072.78
2022-12-12T11:44:44.245Z,98069.53
2022-12-12T11:46:00.298Z,98077.41
2022-12-12T11:47:24.127Z,98066.13
2022-12-12T11:48:38.665Z,98072.06
2022-12-12T11:49:54.588Z,98068.41
2022-12-12T11:50:58.647Z,98072.56
2022-12-12T11:52:20.577Z,98063.81
2022-12-12T11:53:24.296Z,98063.75
2022-12-12T11:54:31.613Z,98066.78
2022-12-12T11:56:04.435Z,98071.31
2022-12-12T11:57:35.180Z,98073.06
2022-12-12T11:58:50.369Z,98072.44
2022-12-12T12:00:19.711Z,98074.81
2022-12-12T12:02:05.111Z,98072.19
2022-12-12T12:03:33.761Z,98080.81
2022-12-12T12:05:04.852Z,98076.31
2022-12-12T12:06:44.946Z,98077.41
2022-12-12T12:08:30.478Z,98078.84
2022-12-12T12:10:03.674Z,98075.44
2022-12-12T12:11:41.038Z,98074.25
2022-12-12T12:13:35.242Z,98071.44
2022-12-12T12:14:58.917Z,98078.22
2022-12-12T12:16:41.746Z,98079.41
2022-12-12T12:18:17.116Z,98076.66
2022-12-12T12:20:13.044Z,98072.78
2022-12-12T12:21:43.826Z,98081.38
2022-12-12T12:22:59.536Z,98079.34
2022-12-12T12:24:37.132Z,98076.72
2022-12-12T12:25:55.951Z,98081.78
2022-12-12T12:27:32.135Z,98077.09
2022-12-12T12:29:21.558Z,98084.56
2022-12-12T12:30:34.626Z,98077.63
2022-12-12T12:31:59.865Z,98077.78
2022-12-12T12:33:31.799Z,98082.31
2022-12-12T12:35:18.173Z,98077.22
2022-12-12T12:36:55.198Z,98074.69
2022-12-12T12:38:34.115Z,98078.34
2022-12-12T12:40:10.169Z,98075.72
2022-12-12T12:41:41.742Z,98076.53
2022-12-12T12:43:22.816Z,98078.97
2022-12-12T12:45:23.915Z,98074.81
2022-12-12T12:47:04.617Z,98084.22
2022-12-12T12:48:59.674Z,98078.84
2022-12-12T12:50:21.196Z,98075.34
2022-12-12T12:51:43.133Z,98080.25
2022-12-12T12:53:24.493Z,98083.50
2022-12-12T12:54:38.179Z,98081.66
2022-12-12T12:55:50.917Z,98081.09
2022-12-12T12:57:20.436Z,98073.91
2022-12-12T12:58:40.558Z,98082.56
2022-12-12T13:00:00.857Z,98090.69
2022-12-12T13:01:12.799Z,98085.97
2022-12-12T13:02:41.334Z,98089.44
2022-12-12T13:04:18.234Z,98089.84
2022-12-12T13:05:26.964Z,98088.03
2022-12-12T13:06:43.934Z,98098.25
2022-12-12T13:08:26.082Z,98094.03
2022-12-12T13:09:59.236Z,98093.09
2022-12-12T13:11:39.780Z,98096.44
2022-12-12T13:13:17.351Z,98103.34
2022-12-12T13:14:45.039Z,98093.75
2022-12-12T13:15:58.012Z,98101.94
2022-12-12T13:17:07.568Z,98094.03
2022-12-12T13:18:17.937Z,98094.78
2022-12-12T13:19:47.913Z,98098.41
2022-12-12T13:21:07.269Z,98094.88
2022-12-12T13:22:49.161Z,98104.72
2022-12-12T13:23:59.905Z,98090.69
2022-12-12T13:25:48.476Z,98099.31
2022-12-12T13:27:20.999Z,98101.13
2022-12-12T13:28:36.598Z,98101.19
2022-12-12T13:29:54.118Z,98105.66
2022-12-12T13:31:31.437Z,98102.28
2022-12-12T13:33:22.818Z,98109.75
2022-12-12T13:34:31.587Z,98107.19
2022-12-12T13:35:46.415Z,98111.44
2022-12-12T13:36:53.727Z,98106.91
2022-12-12T13:37:59.363Z,98107.84
2022-12-12T13:39:09.313Z,98108.25
2022-12-12T13:40:27.208Z,98107.84
2022-12-12T13:42:14.761Z,98120.78
2022-12-12T13:43:55.283Z,98110.38
2022-12-12T13:45:45.211Z,98112.84
2022-12-12T13:46:51.682Z,98119.78
2022-12-12T13:48:03.977Z,98119.69
2022-12-12T13:49:07.760Z,98129.28
2022-12-12T13:50:11.479Z,98125.16
2022-12-12T13:51:31.589Z,98116.25
2022-12-12T13:52:44.786Z,98122.22
2022-12-12T13:53:48.798Z,98117.31
2022-12-12T13:55:12.970Z,98121.34
2022-12-12T13:56:43.518Z,98129.44
2022-12-12T13:58:01.734Z,98120.47
2022-12-12T13:59:25.663Z,98135.28
2022-12-12T14:00:33.130Z,98126.56
2022-12-12T14:01:41.002Z,98122.22
2022-12-12T14:03:14.997Z,98127.59
2022-12-12T14:04:37.317Z,98139.94
2022-12-12T14:05:45.770Z,98139.94
2022-12-12T14:07:17.156Z,98131.91
2022-12-12T14:08:28.831Z,98140.50
2022-12-12T14:09:48.345Z,98140.66
2022-12-12T14:11:01.778Z,98141.78
2022-12-12T14:12:34.335Z,98140.50
2022-12-12T14:13:46.020Z,98142.22
2022-12-12T14:15:19.568Z,98139.66
2022-12-12T14:16:27.894Z,98134.94
2022-12-12T14:17:42.180Z,98142.63
2022-12-12T14:18:50.189Z,98148.06
2022-12-12T14:19:58.989Z,98144.88
2022-12-12T14:21:10.927Z,98144.72
2022-12-12T14:22:36.570Z,98143.03
2022-12-12T14:23:51.891Z,98142.13
2022-12-12T14:25:08.955Z,98148.25
2022-12-12T14:26:28.941Z,98146.41
2022-12-12T14:27:52.733Z,98151.53
2022-12-12T14:29:17.997Z,98147.56
2022-12-12T14:30:33.855Z,98138.97
2022-12-12T14:32:07.089Z,98149.69
2022-12-12T14:33:17.078Z,98152.22
2022-12-12T14:35:00.761Z,98148.69
2022-12-12T14:36:25.600Z,98149.69
2022-12-12T14:38:03.239Z,98142.19
2022-12-12T14:39:46.835Z,98148.34
2022-12-12T14:41:00.165Z,98155.91
2022-12-12T14:42:12.786Z,98159.97